createdAt,value
2019-05-11T00:04:25.229Z,18.53
2019-05-11T00:09:32.730Z,11.77
2019-05-11T00:14:40.017Z,10.60
2019-05-11T00:19:47.106Z,12.03
2019-05-11T00:24:54.309Z,9.60
2019-05-11T00:30:01.590Z,9.90
2019-05-11T00:35:09.580Z,9.57
2019-05-11T00:40:16.847Z,10.03
2019-05-11T00:45:23.927Z,10.90
2019-05-11T00:50:39.288Z,11.37
2019-05-11T00:55:40.018Z,20.53
2019-05-11T01:00:47.102Z,56.63
2019-05-11T01:05:54.942Z,11.23
2019-05-11T01:11:02.900Z,14.87
2019-05-11T01:16:10.070Z,15.63
2019-05-11T01:21:18.947Z,17.00
2019-05-11T01:26:26.523Z,17.10
2019-05-11T01:31:34.428Z,16.67
2019-05-11T01:36:42.397Z,18.30
2019-05-11T01:41:49.710Z,18.53
2019-05-11T01:46:57.014Z,16.03
2019-05-11T01:52:04.570Z,19.77
2019-05-11T01:57:11.920Z,16.70
2019-05-11T02:02:20.822Z,15.40
2019-05-11T02:07:28.038Z,16.00
2019-05-11T02:12:35.213Z,15.00
2019-05-11T02:17:42.286Z,17.97
2019-05-11T02:22:50.172Z,15.90
2019-05-11T02:27:58.043Z,13.93
2019-05-11T02:33:05.160Z,17.73
2019-05-11T02:38:12.643Z,15.57
2019-05-11T02:43:19.859Z,15.97
2019-05-11T02:48:26.946Z,15.23
2019-05-11T02:53:35.162Z,15.70
2019-05-11T02:58:43.350Z,15.87
2019-05-11T03:03:50.911Z,15.20
2019-05-11T03:08:58.999Z,17.37
2019-05-11T03:14:06.211Z,16.93
2019-05-11T03:19:13.315Z,18.87
2019-05-11T03:24:23.998Z,19.63
2019-05-11T03:29:29.201Z,25.77
2019-05-11T03:34:36.377Z,20.53
2019-05-11T03:39:44.333Z,22.40
2019-05-11T03:44:51.598Z,27.43
2019-05-11T03:49:58.757Z,24.57
2019-05-11T03:55:06.362Z,26.20
2019-05-11T04:00:14.339Z,25.07
2019-05-11T04:05:21.546Z,25.30
2019-05-11T04:10:28.724Z,29.37
2019-05-11T04:15:35.813Z,28.70
2019-05-11T04:20:44.175Z,26.63
2019-05-11T04:25:51.350Z,24.60
2019-05-11T04:31:02.372Z,28.47
2019-05-11T04:36:10.184Z,23.27
2019-05-11T04:41:17.416Z,18.53
2019-05-11T04:46:24.629Z,23.63
2019-05-11T04:51:32.438Z,21.20
2019-05-11T04:56:40.365Z,44.57
2019-05-11T05:01:47.415Z,19.87
2019-05-11T05:06:59.864Z,17.17
2019-05-11T05:12:08.466Z,18.00
2019-05-11T05:17:12.313Z,10.27
2019-05-11T05:22:21.373Z,10.90
2019-05-11T05:27:28.519Z,12.93
2019-05-11T05:32:35.969Z,9.03
2019-05-11T05:37:43.230Z,10.83
2019-05-11T05:42:50.365Z,9.40
2019-05-11T05:47:57.851Z,6.43
2019-05-11T05:53:05.505Z,10.47
2019-05-11T05:58:12.741Z,9.67
2019-05-11T06:03:20.170Z,8.97
2019-05-11T06:08:27.488Z,8.93
2019-05-11T06:13:45.364Z,8.33
2019-05-11T06:18:43.813Z,10.30
2019-05-11T06:23:51.016Z,8.20
2019-05-11T06:28:58.193Z,9.50
2019-05-11T06:34:05.336Z,7.07
2019-05-11T06:39:13.425Z,5.50
2019-05-11T06:44:20.597Z,5.10
2019-05-11T06:49:28.292Z,8.00
2019-05-11T06:54:36.070Z,6.20
2019-05-11T06:59:43.992Z,6.80
2019-05-11T07:04:51.200Z,7.83
2019-05-11T07:09:59.825Z,5.03
2019-05-11T07:15:07.337Z,11.90
2019-05-11T07:20:15.760Z,4.23
2019-05-11T07:25:23.453Z,6.47
2019-05-11T07:30:31.535Z,15.97
2019-05-11T07:35:39.336Z,10.73
2019-05-11T07:40:47.680Z,4.83
2019-05-11T07:45:54.886Z,4.53
2019-05-11T07:51:02.480Z,4.53
2019-05-11T07:56:09.805Z,4.47
2019-05-11T08:01:19.122Z,4.13
2019-05-11T08:06:28.592Z,2.87
2019-05-11T08:11:35.223Z,8.93
2019-05-11T08:16:42.454Z,3.73
2019-05-11T08:21:50.229Z,14.03
2019-05-11T08:26:58.194Z,5.13
2019-05-11T08:32:08.052Z,5.87
2019-05-11T08:37:14.301Z,5.43
2019-05-11T08:42:21.406Z,6.00
2019-05-11T08:47:28.949Z,3.80
2019-05-11T08:52:38.423Z,6.77
2019-05-11T08:57:47.796Z,10.53
2019-05-11T09:02:55.068Z,10.93
2019-05-11T09:08:02.709Z,5.10
2019-05-11T09:13:10.092Z,3.87
2019-05-11T09:18:18.733Z,2.80
2019-05-11T09:23:34.560Z,4.90
2019-05-11T09:28:38.252Z,6.27
2019-05-11T09:33:45.054Z,5.50
2019-05-11T09:38:52.250Z,4.07
2019-05-11T09:43:59.656Z,4.43
2019-05-11T09:49:08.079Z,5.27
2019-05-11T09:54:18.116Z,3.70
2019-05-11T09:59:24.916Z,6.83
2019-05-11T10:04:32.227Z,5.53
2019-05-11T10:09:39.413Z,2.17
2019-05-11T10:14:48.598Z,2.57
2019-05-11T10:19:58.039Z,3.60
2019-05-11T10:25:06.079Z,2.70
2019-05-11T10:30:14.042Z,4.20
2019-05-11T10:35:21.115Z,8.07
2019-05-11T10:40:28.507Z,2.70
2019-05-11T10:45:37.922Z,11.00
2019-05-11T10:50:45.675Z,3.03
2019-05-11T10:55:52.985Z,2.73
2019-05-11T11:01:01.341Z,3.43
2019-05-11T11:06:08.601Z,3.60
2019-05-11T11:11:18.498Z,4.20
2019-05-11T11:16:36.744Z,2.27
2019-05-11T11:21:34.731Z,4.77
2019-05-11T11:26:42.205Z,2.47
2019-05-11T11:31:53.027Z,5.73
2019-05-11T11:37:00.444Z,2.70
2019-05-11T11:42:08.483Z,4.03
2019-05-11T11:47:20.971Z,3.47
2019-05-11T11:52:27.564Z,2.60
2019-05-11T11:57:37.765Z,2.47
2019-05-11T12:02:45.185Z,8.13
2019-05-11T12:07:52.513Z,3.27
2019-05-11T12:12:59.790Z,4.50
2019-05-11T12:18:08.255Z,2.63
2019-05-11T12:23:17.818Z,4.10
2019-05-11T12:28:24.327Z,2.97
2019-05-11T12:33:31.510Z,5.90
2019-05-11T12:38:38.697Z,4.27
2019-05-11T12:43:46.174Z,8.40
2019-05-11T12:48:56.547Z,2.90
2019-05-11T12:54:02.678Z,3.50
2019-05-11T12:59:10.187Z,4.03
2019-05-11T13:04:18.139Z,3.77
2019-05-11T13:09:25.704Z,3.10
2019-05-11T13:14:33.137Z,10.77
2019-05-11T13:19:41.394Z,8.73
2019-05-11T13:24:48.698Z,4.92
2019-05-11T13:29:56.235Z,2.83
2019-05-11T13:35:03.836Z,4.92
2019-05-11T13:40:11.456Z,3.05
2019-05-11T13:45:18.972Z,3.72
2019-05-11T13:50:26.368Z,3.77
2019-05-11T13:55:34.532Z,4.17
2019-05-11T14:00:41.645Z,3.77
2019-05-11T14:05:48.937Z,3.37
2019-05-11T14:10:57.903Z,5.80
2019-05-11T14:16:05.237Z,3.05
2019-05-11T14:21:13.580Z,6.08
2019-05-11T14:26:20.828Z,5.58
2019-05-11T14:31:29.011Z,3.60
2019-05-11T14:36:38.520Z,3.92
2019-05-11T14:41:45.549Z,3.02
2019-05-11T14:46:52.746Z,3.95
2019-05-11T14:52:00.155Z,4.72
2019-05-11T14:57:08.056Z,2.62
2019-05-11T15:02:33.306Z,6.20
2019-05-11T15:07:41.610Z,2.90
2019-05-11T15:12:49.245Z,4.17
2019-05-11T15:17:58.164Z,4.17
2019-05-11T15:23:08.887Z,4.00
2019-05-11T15:28:18.165Z,6.87
2019-05-11T15:33:27.681Z,4.47
2019-05-11T15:38:34.745Z,4.87
2019-05-11T15:43:42.029Z,3.90
2019-05-11T15:48:59.430Z,3.25
2019-05-11T15:53:58.778Z,2.27
2019-05-11T15:59:08.615Z,4.28
2019-05-11T16:04:18.085Z,4.33
2019-05-11T16:09:24.882Z,6.27
2019-05-11T16:14:32.162Z,4.27
2019-05-11T16:19:41.121Z,4.62
2019-05-11T16:24:48.677Z,2.40
2019-05-11T16:29:57.042Z,3.42
2019-05-11T16:35:05.280Z,9.63
2019-05-11T16:40:13.774Z,6.03
2019-05-11T16:45:23.959Z,2.20
2019-05-11T16:50:31.904Z,3.43
2019-05-11T16:55:39.674Z,3.50
2019-05-11T17:00:49.034Z,4.43
2019-05-11T17:05:55.714Z,6.77
2019-05-11T17:11:02.988Z,6.60
2019-05-11T17:16:10.701Z,2.97
2019-05-11T17:21:18.453Z,7.43
2019-05-11T17:26:27.784Z,3.03
2019-05-11T17:31:34.397Z,5.37
2019-05-11T17:36:42.683Z,6.37
2019-05-11T17:41:50.270Z,4.73
2019-05-11T17:46:57.823Z,5.57
2019-05-11T17:52:07.996Z,5.43
2019-05-11T17:57:15.277Z,8.83
2019-05-11T18:02:22.462Z,9.37
2019-05-11T18:07:31.051Z,8.40
2019-05-11T18:12:39.172Z,8.30
2019-05-11T18:17:48.405Z,5.83
2019-05-11T18:22:58.074Z,6.63
2019-05-11T18:28:05.961Z,6.53
2019-05-11T18:33:13.018Z,7.63
2019-05-11T18:38:21.326Z,20.07
2019-05-11T18:43:28.722Z,16.53
2019-05-11T18:48:37.982Z,9.97
2019-05-11T18:53:45.039Z,7.30
2019-05-11T18:58:52.193Z,7.10
2019-05-11T19:04:00.130Z,7.60
2019-05-11T19:09:08.422Z,11.03
2019-05-11T19:14:16.904Z,7.70
2019-05-11T19:19:24.236Z,13.33
2019-05-11T19:24:32.264Z,8.07
2019-05-11T19:29:40.546Z,11.97
2019-05-11T19:34:47.895Z,9.27
2019-05-11T19:39:55.060Z,10.57
2019-05-11T19:45:02.469Z,6.63
2019-05-11T19:50:10.884Z,44.27
2019-05-11T19:55:18.599Z,17.47
2019-05-11T20:00:25.834Z,8.40
2019-05-11T20:05:34.142Z,7.23
2019-05-11T20:10:42.347Z,8.70
2019-05-11T20:15:49.666Z,10.60
2019-05-11T20:20:58.984Z,25.60
2019-05-11T20:26:06.024Z,28.90
2019-05-11T20:31:13.716Z,20.43
2019-05-11T20:36:20.828Z,21.70
2019-05-11T20:41:28.319Z,19.30
2019-05-11T20:46:35.400Z,16.80
2019-05-11T20:51:42.495Z,13.83
2019-05-11T20:56:49.619Z,12.63
2019-05-11T21:01:58.640Z,13.27
2019-05-11T21:07:08.505Z,11.30
2019-05-11T21:12:18.358Z,12.07
2019-05-11T21:17:24.622Z,14.53
2019-05-11T21:22:31.685Z,11.40
2019-05-11T21:27:39.303Z,11.17
2019-05-11T21:32:47.878Z,14.27
2019-05-11T21:37:55.355Z,21.77
2019-05-11T21:43:02.542Z,11.87
2019-05-11T21:48:09.657Z,14.30
2019-05-11T21:53:18.429Z,13.90
2019-05-11T21:58:28.423Z,10.27
2019-05-11T22:03:35.262Z,14.70
2019-05-11T22:08:42.418Z,12.13
2019-05-11T22:13:49.625Z,10.63
2019-05-11T22:18:58.039Z,10.87
2019-05-11T22:24:05.350Z,14.00
2019-05-11T22:29:12.865Z,12.70
2019-05-11T22:34:19.940Z,8.77
2019-05-11T22:39:27.130Z,8.27
2019-05-11T22:44:35.910Z,11.50
2019-05-11T22:49:43.145Z,10.60
2019-05-11T22:54:50.327Z,8.73
2019-05-11T22:59:59.079Z,13.20
2019-05-11T23:05:08.527Z,10.60
2019-05-11T23:10:17.737Z,9.80
2019-05-11T23:15:25.193Z,10.10
2019-05-11T23:20:33.546Z,15.07
2019-05-11T23:25:41.220Z,17.30
2019-05-11T23:30:48.388Z,9.50
2019-05-11T23:35:55.814Z,9.53
2019-05-11T23:41:03.211Z,12.90
2019-05-11T23:46:10.822Z,7.23
2019-05-11T23:51:18.268Z,8.40
2019-05-11T23:56:28.013Z,10.27
